sensor_id;sensor_type;location;lat;lon;timestamp;P1;durP1;ratioP1;P2;durP2;ratioP2
61741;SDS011;47650;49.848;9.620;2022-09-14T00:01:10;6.63;;;4.65;;
61741;SDS011;47650;49.848;9.620;2022-09-14T00:03:43;8.55;;;5.20;;
61741;SDS011;47650;49.848;9.620;2022-09-14T00:06:10;7.38;;;5.40;;
61741;SDS011;47650;49.848;9.620;2022-09-14T00:08:37;8.50;;;5.63;;
61741;SDS011;47650;49.848;9.620;2022-09-14T00:11:07;11.02;;;6.65;;
61741;SDS011;47650;49.848;9.620;2022-09-14T00:13:36;6.07;;;5.57;;
61741;SDS011;47650;49.848;9.620;2022-09-14T00:16:07;6.75;;;5.72;;
61741;SDS011;47650;49.848;9.620;2022-09-14T00:18:50;9.68;;;6.43;;
61741;SDS011;47650;49.848;9.620;2022-09-14T00:21:16;7.47;;;5.10;;
61741;SDS011;47650;49.848;9.620;2022-09-14T00:23:42;6.15;;;5.55;;
61741;SDS011;47650;49.848;9.620;2022-09-14T00:26:14;6.10;;;5.28;;
61741;SDS011;47650;49.848;9.620;2022-09-14T00:31:11;5.95;;;5.15;;
61741;SDS011;47650;49.848;9.620;2022-09-14T00:33:37;7.55;;;5.40;;
61741;SDS011;47650;49.848;9.620;2022-09-14T00:36:06;6.72;;;4.90;;
61741;SDS011;47650;49.848;9.620;2022-09-14T00:38:33;7.22;;;6.60;;
61741;SDS011;47650;49.848;9.620;2022-09-14T00:40:59;8.68;;;7.47;;
61741;SDS011;47650;49.848;9.620;2022-09-14T00:43:25;6.18;;;5.57;;
61741;SDS011;47650;49.848;9.620;2022-09-14T00:45:51;7.68;;;5.97;;
61741;SDS011;47650;49.848;9.620;2022-09-14T00:48:17;6.65;;;5.82;;
61741;SDS011;47650;49.848;9.620;2022-09-14T00:50:45;7.35;;;6.63;;
61741;SDS011;47650;49.848;9.620;2022-09-14T00:53:11;7.82;;;5.40;;
61741;SDS011;47650;49.848;9.620;2022-09-14T00:55:39;9.52;;;5.93;;
61741;SDS011;47650;49.848;9.620;2022-09-14T00:58:04;9.30;;;7.05;;
61741;SDS011;47650;49.848;9.620;2022-09-14T01:00:30;12.50;;;6.03;;
61741;SDS011;47650;49.848;9.620;2022-09-14T01:02:55;12.32;;;7.03;;
61741;SDS011;47650;49.848;9.620;2022-09-14T01:14:15;20.58;;;15.95;;
61741;SDS011;47650;49.848;9.620;2022-09-14T01:16:58;26.35;;;16.90;;
61741;SDS011;47650;49.848;9.620;2022-09-14T01:20:38;22.73;;;17.83;;
61741;SDS011;47650;49.848;9.620;2022-09-14T01:28:37;26.17;;;16.65;;
61741;SDS011;47650;49.848;9.620;2022-09-14T01:31:12;15.93;;;12.07;;
61741;SDS011;47650;49.848;9.620;2022-09-14T01:33:44;24.73;;;17.42;;
61741;SDS011;47650;49.848;9.620;2022-09-14T01:36:17;17.88;;;14.32;;
61741;SDS011;47650;49.848;9.620;2022-09-14T01:38:49;28.17;;;15.85;;
61741;SDS011;47650;49.848;9.620;2022-09-14T01:41:18;27.92;;;17.27;;
61741;SDS011;47650;49.848;9.620;2022-09-14T01:43:47;32.35;;;21.65;;
61741;SDS011;47650;49.848;9.620;2022-09-14T01:46:21;18.70;;;14.77;;
61741;SDS011;47650;49.848;9.620;2022-09-14T01:49:08;22.83;;;15.13;;
61741;SDS011;47650;49.848;9.620;2022-09-14T01:52:15;21.05;;;16.38;;
61741;SDS011;47650;49.848;9.620;2022-09-14T01:55:21;19.55;;;16.23;;
61741;SDS011;47650;49.848;9.620;2022-09-14T01:57:55;24.08;;;16.55;;
61741;SDS011;47650;49.848;9.620;2022-09-14T02:03:41;35.35;;;21.88;;
61741;SDS011;47650;49.848;9.620;2022-09-14T02:06:19;50.72;;;27.10;;
61741;SDS011;47650;49.848;9.620;2022-09-14T02:08:56;44.42;;;28.83;;
61741;SDS011;47650;49.848;9.620;2022-09-14T02:11:24;33.88;;;23.75;;
61741;SDS011;47650;49.848;9.620;2022-09-14T02:13:51;41.40;;;28.17;;
61741;SDS011;47650;49.848;9.620;2022-09-14T02:16:17;37.33;;;23.17;;
61741;SDS011;47650;49.848;9.620;2022-09-14T02:18:45;38.13;;;25.77;;
61741;SDS011;47650;49.848;9.620;2022-09-14T02:21:13;45.67;;;27.77;;
61741;SDS011;47650;49.848;9.620;2022-09-14T02:23:43;32.00;;;23.02;;
61741;SDS011;47650;49.848;9.620;2022-09-14T02:26:09;32.35;;;22.95;;
61741;SDS011;47650;49.848;9.620;2022-09-14T02:28:37;47.20;;;29.85;;
61741;SDS011;47650;49.848;9.620;2022-09-14T02:34:18;44.15;;;29.08;;
61741;SDS011;47650;49.848;9.620;2022-09-14T02:42:35;30.13;;;23.90;;
61741;SDS011;47650;49.848;9.620;2022-09-14T02:56:33;40.13;;;22.42;;
61741;SDS011;47650;49.848;9.620;2022-09-14T02:59:00;34.78;;;19.17;;
61741;SDS011;47650;49.848;9.620;2022-09-14T03:01:32;39.78;;;23.00;;
61741;SDS011;47650;49.848;9.620;2022-09-14T03:03:58;61.08;;;33.10;;
61741;SDS011;47650;49.848;9.620;2022-09-14T03:06:29;89.78;;;39.65;;
61741;SDS011;47650;49.848;9.620;2022-09-14T03:08:56;55.97;;;31.58;;
61741;SDS011;47650;49.848;9.620;2022-09-14T03:11:22;35.17;;;24.40;;
61741;SDS011;47650;49.848;9.620;2022-09-14T03:13:48;66.45;;;27.23;;
61741;SDS011;47650;49.848;9.620;2022-09-14T03:16:17;69.05;;;36.15;;
61741;SDS011;47650;49.848;9.620;2022-09-14T03:18:44;65.78;;;32.67;;
61741;SDS011;47650;49.848;9.620;2022-09-14T03:21:24;60.58;;;32.30;;
61741;SDS011;47650;49.848;9.620;2022-09-14T03:23:51;48.53;;;29.65;;
61741;SDS011;47650;49.848;9.620;2022-09-14T03:26:19;61.85;;;33.30;;
61741;SDS011;47650;49.848;9.620;2022-09-14T03:28:53;31.98;;;23.30;;
61741;SDS011;47650;49.848;9.620;2022-09-14T03:31:24;53.50;;;31.73;;
61741;SDS011;47650;49.848;9.620;2022-09-14T03:33:53;54.17;;;32.45;;
61741;SDS011;47650;49.848;9.620;2022-09-14T03:36:20;78.60;;;34.40;;
61741;SDS011;47650;49.848;9.620;2022-09-14T03:38:51;62.05;;;33.85;;
61741;SDS011;47650;49.848;9.620;2022-09-14T03:41:21;52.33;;;31.20;;
61741;SDS011;47650;49.848;9.620;2022-09-14T03:43:47;49.35;;;31.10;;
61741;SDS011;47650;49.848;9.620;2022-09-14T03:46:15;52.00;;;29.35;;
61741;SDS011;47650;49.848;9.620;2022-09-14T03:48:43;41.28;;;26.38;;
61741;SDS011;47650;49.848;9.620;2022-09-14T03:51:09;42.08;;;25.77;;
61741;SDS011;47650;49.848;9.620;2022-09-14T03:53:39;42.35;;;25.40;;
61741;SDS011;47650;49.848;9.620;2022-09-14T03:56:06;24.85;;;18.15;;
61741;SDS011;47650;49.848;9.620;2022-09-14T03:58:32;31.30;;;22.35;;
61741;SDS011;47650;49.848;9.620;2022-09-14T04:01:06;45.53;;;26.20;;
61741;SDS011;47650;49.848;9.620;2022-09-14T04:03:34;28.77;;;19.30;;
61741;SDS011;47650;49.848;9.620;2022-09-14T04:06:07;34.33;;;18.98;;
61741;SDS011;47650;49.848;9.620;2022-09-14T04:08:33;46.72;;;26.50;;
61741;SDS011;47650;49.848;9.620;2022-09-14T04:11:05;52.75;;;31.35;;
61741;SDS011;47650;49.848;9.620;2022-09-14T04:13:33;68.97;;;35.15;;
61741;SDS011;47650;49.848;9.620;2022-09-14T04:16:11;48.88;;;28.63;;
61741;SDS011;47650;49.848;9.620;2022-09-14T04:18:37;55.25;;;31.50;;
61741;SDS011;47650;49.848;9.620;2022-09-14T04:21:05;55.03;;;30.42;;
61741;SDS011;47650;49.848;9.620;2022-09-14T04:23:32;54.50;;;30.17;;
61741;SDS011;47650;49.848;9.620;2022-09-14T04:25:58;58.45;;;32.10;;
61741;SDS011;47650;49.848;9.620;2022-09-14T04:28:23;30.58;;;22.73;;
61741;SDS011;47650;49.848;9.620;2022-09-14T04:30:53;46.13;;;28.42;;
61741;SDS011;47650;49.848;9.620;2022-09-14T04:33:22;36.27;;;25.77;;
61741;SDS011;47650;49.848;9.620;2022-09-14T04:35:59;42.38;;;28.48;;
61741;SDS011;47650;49.848;9.620;2022-09-14T04:38:29;29.70;;;23.60;;
61741;SDS011;47650;49.848;9.620;2022-09-14T04:40:55;55.72;;;32.17;;
61741;SDS011;47650;49.848;9.620;2022-09-14T04:43:21;35.42;;;24.95;;
61741;SDS011;47650;49.848;9.620;2022-09-14T04:45:48;49.85;;;31.42;;
61741;SDS011;47650;49.848;9.620;2022-09-14T04:48:13;52.40;;;32.75;;
61741;SDS011;47650;49.848;9.620;2022-09-14T04:50:39;65.65;;;34.63;;
61741;SDS011;47650;49.848;9.620;2022-09-14T04:53:04;47.33;;;23.55;;
61741;SDS011;47650;49.848;9.620;2022-09-14T04:55:38;55.10;;;30.25;;
61741;SDS011;47650;49.848;9.620;2022-09-14T05:00:31;49.50;;;27.80;;
61741;SDS011;47650;49.848;9.620;2022-09-14T05:02:57;61.60;;;32.42;;
61741;SDS011;47650;49.848;9.620;2022-09-14T05:05:23;55.40;;;32.85;;
61741;SDS011;47650;49.848;9.620;2022-09-14T05:07:49;39.65;;;25.23;;
61741;SDS011;47650;49.848;9.620;2022-09-14T05:10:15;44.58;;;29.92;;
61741;SDS011;47650;49.848;9.620;2022-09-14T05:12:40;35.40;;;25.55;;
61741;SDS011;47650;49.848;9.620;2022-09-14T05:15:06;64.55;;;35.65;;
61741;SDS011;47650;49.848;9.620;2022-09-14T05:20:00;67.45;;;35.80;;
61741;SDS011;47650;49.848;9.620;2022-09-14T05:22:31;48.92;;;30.75;;
61741;SDS011;47650;49.848;9.620;2022-09-14T05:24:58;46.85;;;29.98;;
61741;SDS011;47650;49.848;9.620;2022-09-14T05:27:25;70.50;;;37.83;;
61741;SDS011;47650;49.848;9.620;2022-09-14T05:29:50;48.42;;;32.63;;
61741;SDS011;47650;49.848;9.620;2022-09-14T05:32:16;68.82;;;39.30;;
61741;SDS011;47650;49.848;9.620;2022-09-14T05:34:43;73.90;;;39.25;;
61741;SDS011;47650;49.848;9.620;2022-09-14T05:37:10;66.03;;;37.63;;
61741;SDS011;47650;49.848;9.620;2022-09-14T05:39:37;51.33;;;31.30;;
61741;SDS011;47650;49.848;9.620;2022-09-14T05:42:02;44.70;;;27.65;;
61741;SDS011;47650;49.848;9.620;2022-09-14T05:44:29;70.22;;;40.05;;
61741;SDS011;47650;49.848;9.620;2022-09-14T05:46:54;60.58;;;36.53;;
61741;SDS011;47650;49.848;9.620;2022-09-14T05:49:19;74.03;;;41.70;;
61741;SDS011;47650;49.848;9.620;2022-09-14T05:51:45;47.33;;;31.52;;
61741;SDS011;47650;49.848;9.620;2022-09-14T05:54:10;77.72;;;41.42;;
61741;SDS011;47650;49.848;9.620;2022-09-14T05:56:36;87.15;;;41.97;;
61741;SDS011;47650;49.848;9.620;2022-09-14T05:59:08;81.97;;;43.78;;
61741;SDS011;47650;49.848;9.620;2022-09-14T06:01:36;80.18;;;45.70;;
61741;SDS011;47650;49.848;9.620;2022-09-14T06:04:02;84.72;;;44.40;;
61741;SDS011;47650;49.848;9.620;2022-09-14T06:06:28;73.47;;;41.97;;
61741;SDS011;47650;49.848;9.620;2022-09-14T06:08:55;64.18;;;37.45;;
61741;SDS011;47650;49.848;9.620;2022-09-14T06:11:25;70.68;;;41.67;;
61741;SDS011;47650;49.848;9.620;2022-09-14T06:13:52;51.90;;;33.90;;
61741;SDS011;47650;49.848;9.620;2022-09-14T06:16:19;73.72;;;41.45;;
61741;SDS011;47650;49.848;9.620;2022-09-14T06:18:47;54.70;;;34.67;;
61741;SDS011;47650;49.848;9.620;2022-09-14T06:21:15;68.95;;;40.92;;
61741;SDS011;47650;49.848;9.620;2022-09-14T06:23:49;77.07;;;37.85;;
61741;SDS011;47650;49.848;9.620;2022-09-14T06:26:15;91.35;;;39.92;;
61741;SDS011;47650;49.848;9.620;2022-09-14T06:28:41;89.30;;;42.45;;
61741;SDS011;47650;49.848;9.620;2022-09-14T06:31:06;112.45;;;49.70;;
61741;SDS011;47650;49.848;9.620;2022-09-14T06:33:34;115.47;;;49.72;;
61741;SDS011;47650;49.848;9.620;2022-09-14T06:36:03;83.75;;;44.40;;
61741;SDS011;47650;49.848;9.620;2022-09-14T06:38:33;90.15;;;44.10;;
61741;SDS011;47650;49.848;9.620;2022-09-14T06:41:01;54.55;;;35.22;;
61741;SDS011;47650;49.848;9.620;2022-09-14T06:43:36;71.72;;;40.30;;
61741;SDS011;47650;49.848;9.620;2022-09-14T06:46:05;56.90;;;31.40;;
61741;SDS011;47650;49.848;9.620;2022-09-14T06:48:31;125.97;;;41.88;;
61741;SDS011;47650;49.848;9.620;2022-09-14T06:50:58;54.22;;;34.85;;
61741;SDS011;47650;49.848;9.620;2022-09-14T06:53:24;48.03;;;31.73;;
61741;SDS011;47650;49.848;9.620;2022-09-14T06:55:50;64.85;;;39.63;;
61741;SDS011;47650;49.848;9.620;2022-09-14T06:58:17;88.28;;;44.38;;
61741;SDS011;47650;49.848;9.620;2022-09-14T07:00:42;72.78;;;38.80;;
61741;SDS011;47650;49.848;9.620;2022-09-14T07:03:10;38.88;;;29.25;;
61741;SDS011;47650;49.848;9.620;2022-09-14T07:05:38;34.33;;;24.67;;
61741;SDS011;47650;49.848;9.620;2022-09-14T07:08:05;46.10;;;28.98;;
61741;SDS011;47650;49.848;9.620;2022-09-14T07:10:31;54.20;;;32.03;;
61741;SDS011;47650;49.848;9.620;2022-09-14T07:12:57;56.13;;;33.40;;
61741;SDS011;47650;49.848;9.620;2022-09-14T07:15:24;41.10;;;29.10;;
61741;SDS011;47650;49.848;9.620;2022-09-14T07:17:49;42.53;;;24.48;;
61741;SDS011;47650;49.848;9.620;2022-09-14T07:20:14;54.47;;;33.00;;
61741;SDS011;47650;49.848;9.620;2022-09-14T07:22:40;23.02;;;19.00;;
61741;SDS011;47650;49.848;9.620;2022-09-14T07:25:06;35.42;;;25.85;;
61741;SDS011;47650;49.848;9.620;2022-09-14T07:27:38;41.88;;;28.73;;
61741;SDS011;47650;49.848;9.620;2022-09-14T07:30:04;32.20;;;24.00;;
61741;SDS011;47650;49.848;9.620;2022-09-14T07:32:31;36.40;;;24.85;;
61741;SDS011;47650;49.848;9.620;2022-09-14T07:37:25;32.03;;;24.92;;
61741;SDS011;47650;49.848;9.620;2022-09-14T07:39:51;53.38;;;35.63;;
61741;SDS011;47650;49.848;9.620;2022-09-14T07:42:17;33.97;;;26.75;;
61741;SDS011;47650;49.848;9.620;2022-09-14T07:44:42;39.38;;;31.08;;
61741;SDS011;47650;49.848;9.620;2022-09-14T07:47:07;29.48;;;25.35;;
61741;SDS011;47650;49.848;9.620;2022-09-14T07:49:33;41.38;;;32.47;;
61741;SDS011;47650;49.848;9.620;2022-09-14T07:51:58;42.22;;;33.17;;
61741;SDS011;47650;49.848;9.620;2022-09-14T07:54:23;46.72;;;34.33;;
61741;SDS011;47650;49.848;9.620;2022-09-14T07:56:49;38.85;;;29.65;;
61741;SDS011;47650;49.848;9.620;2022-09-14T07:59:14;32.83;;;25.17;;
61741;SDS011;47650;49.848;9.620;2022-09-14T08:01:40;39.85;;;28.42;;
61741;SDS011;47650;49.848;9.620;2022-09-14T08:04:12;31.10;;;23.30;;
61741;SDS011;47650;49.848;9.620;2022-09-14T08:06:37;40.03;;;29.63;;
61741;SDS011;47650;49.848;9.620;2022-09-14T08:09:05;36.97;;;25.88;;
61741;SDS011;47650;49.848;9.620;2022-09-14T08:11:32;34.47;;;26.75;;
61741;SDS011;47650;49.848;9.620;2022-09-14T08:14:01;32.88;;;24.50;;
61741;SDS011;47650;49.848;9.620;2022-09-14T08:16:40;19.73;;;15.65;;
61741;SDS011;47650;49.848;9.620;2022-09-14T08:30:43;15.98;;;13.02;;
61741;SDS011;47650;49.848;9.620;2022-09-14T08:33:09;10.95;;;9.80;;
61741;SDS011;47650;49.848;9.620;2022-09-14T08:35:40;15.65;;;13.27;;
61741;SDS011;47650;49.848;9.620;2022-09-14T08:38:07;14.95;;;12.80;;
61741;SDS011;47650;49.848;9.620;2022-09-14T08:40:33;15.15;;;13.50;;
61741;SDS011;47650;49.848;9.620;2022-09-14T08:42:58;12.40;;;11.00;;
61741;SDS011;47650;49.848;9.620;2022-09-14T08:45:28;14.82;;;13.20;;
61741;SDS011;47650;49.848;9.620;2022-09-14T08:47:55;9.45;;;8.52;;
61741;SDS011;47650;49.848;9.620;2022-09-14T08:50:23;12.23;;;9.27;;
61741;SDS011;47650;49.848;9.620;2022-09-14T08:52:51;8.35;;;7.57;;
61741;SDS011;47650;49.848;9.620;2022-09-14T08:55:34;10.85;;;9.07;;
61741;SDS011;47650;49.848;9.620;2022-09-14T09:00:38;9.60;;;8.45;;
61741;SDS011;47650;49.848;9.620;2022-09-14T09:05:57;10.55;;;9.18;;
61741;SDS011;47650;49.848;9.620;2022-09-14T09:11:45;13.07;;;10.30;;
61741;SDS011;47650;49.848;9.620;2022-09-14T09:14:25;10.98;;;9.05;;
61741;SDS011;47650;49.848;9.620;2022-09-14T09:16:56;11.95;;;9.63;;
61741;SDS011;47650;49.848;9.620;2022-09-14T09:19:29;11.60;;;8.73;;
61741;SDS011;47650;49.848;9.620;2022-09-14T09:21:58;11.27;;;8.13;;
61741;SDS011;47650;49.848;9.620;2022-09-14T09:24:38;7.63;;;6.47;;
61741;SDS011;47650;49.848;9.620;2022-09-14T09:27:10;8.38;;;7.40;;
61741;SDS011;47650;49.848;9.620;2022-09-14T09:29:37;6.82;;;6.13;;
61741;SDS011;47650;49.848;9.620;2022-09-14T09:32:02;7.63;;;6.00;;
61741;SDS011;47650;49.848;9.620;2022-09-14T09:34:30;5.72;;;4.78;;
61741;SDS011;47650;49.848;9.620;2022-09-14T09:36:57;6.35;;;5.75;;
61741;SDS011;47650;49.848;9.620;2022-09-14T09:39:25;6.50;;;5.40;;
61741;SDS011;47650;49.848;9.620;2022-09-14T09:42:04;5.63;;;4.80;;
61741;SDS011;47650;49.848;9.620;2022-09-14T09:47:26;5.50;;;4.30;;
61741;SDS011;47650;49.848;9.620;2022-09-14T09:50:00;5.07;;;3.72;;
61741;SDS011;47650;49.848;9.620;2022-09-14T09:52:28;4.60;;;3.67;;
61741;SDS011;47650;49.848;9.620;2022-09-14T09:54:54;3.90;;;3.35;;
61741;SDS011;47650;49.848;9.620;2022-09-14T09:57:22;4.03;;;3.25;;
61741;SDS011;47650;49.848;9.620;2022-09-14T10:02:38;4.07;;;2.58;;
61741;SDS011;47650;49.848;9.620;2022-09-14T10:10:04;2.90;;;2.70;;
61741;SDS011;47650;49.848;9.620;2022-09-14T10:12:35;5.25;;;2.45;;
61741;SDS011;47650;49.848;9.620;2022-09-14T10:18:19;3.17;;;2.83;;
61741;SDS011;47650;49.848;9.620;2022-09-14T10:20:42;3.38;;;2.60;;
61741;SDS011;47650;49.848;9.620;2022-09-14T10:25:47;2.92;;;2.72;;
61741;SDS011;47650;49.848;9.620;2022-09-14T10:28:32;4.75;;;3.40;;
61741;SDS011;47650;49.848;9.620;2022-09-14T10:33:33;3.88;;;3.47;;
61741;SDS011;47650;49.848;9.620;2022-09-14T10:41:37;4.70;;;4.30;;
61741;SDS011;47650;49.848;9.620;2022-09-14T10:55:39;6.15;;;5.55;;
61741;SDS011;47650;49.848;9.620;2022-09-14T10:58:17;5.60;;;5.10;;
61741;SDS011;47650;49.848;9.620;2022-09-14T11:03:56;6.55;;;5.88;;
61741;SDS011;47650;49.848;9.620;2022-09-14T11:06:47;6.70;;;6.10;;
61741;SDS011;47650;49.848;9.620;2022-09-14T11:12:01;6.40;;;5.75;;
61741;SDS011;47650;49.848;9.620;2022-09-14T11:14:36;6.88;;;6.28;;
61741;SDS011;47650;49.848;9.620;2022-09-14T11:25:38;6.95;;;5.75;;
61741;SDS011;47650;49.848;9.620;2022-09-14T11:28:13;7.53;;;6.90;;
61741;SDS011;47650;49.848;9.620;2022-09-14T11:30:53;7.97;;;7.25;;
61741;SDS011;47650;49.848;9.620;2022-09-14T11:33:30;9.48;;;8.18;;
61741;SDS011;47650;49.848;9.620;2022-09-14T11:36:06;8.75;;;8.05;;
61741;SDS011;47650;49.848;9.620;2022-09-14T11:38:42;8.23;;;7.53;;
61741;SDS011;47650;49.848;9.620;2022-09-14T11:41:20;8.30;;;7.60;;
61741;SDS011;47650;49.848;9.620;2022-09-14T11:43:57;7.03;;;6.43;;
61741;SDS011;47650;49.848;9.620;2022-09-14T11:46:34;7.22;;;6.53;;
61741;SDS011;47650;49.848;9.620;2022-09-14T11:52:01;6.88;;;5.88;;
61741;SDS011;47650;49.848;9.620;2022-09-14T11:54:32;6.50;;;5.90;;
61741;SDS011;47650;49.848;9.620;2022-09-14T11:57:01;7.15;;;6.18;;
61741;SDS011;47650;49.848;9.620;2022-09-14T11:59:33;7.10;;;6.40;;
61741;SDS011;47650;49.848;9.620;2022-09-14T12:12:37;6.85;;;6.28;;
61741;SDS011;47650;49.848;9.620;2022-09-14T12:23:06;7.47;;;6.20;;
61741;SDS011;47650;49.848;9.620;2022-09-14T12:26:04;7.68;;;6.97;;
61741;SDS011;47650;49.848;9.620;2022-09-14T12:36:04;6.75;;;6.15;;
61741;SDS011;47650;49.848;9.620;2022-09-14T12:41:56;7.25;;;6.63;;
61741;SDS011;47650;49.848;9.620;2022-09-14T12:59:23;7.70;;;6.90;;
61741;SDS011;47650;49.848;9.620;2022-09-14T13:04:35;9.27;;;6.78;;
61741;SDS011;47650;49.848;9.620;2022-09-14T13:07:04;7.43;;;6.70;;
61741;SDS011;47650;49.848;9.620;2022-09-14T13:09:50;7.53;;;6.70;;
61741;SDS011;47650;49.848;9.620;2022-09-14T13:12:22;7.95;;;7.25;;
61741;SDS011;47650;49.848;9.620;2022-09-14T13:15:04;7.60;;;6.90;;
61741;SDS011;47650;49.848;9.620;2022-09-14T13:17:32;7.55;;;6.95;;
61741;SDS011;47650;49.848;9.620;2022-09-14T13:19:58;7.90;;;6.95;;
61741;SDS011;47650;49.848;9.620;2022-09-14T13:22:28;8.23;;;7.53;;
61741;SDS011;47650;49.848;9.620;2022-09-14T13:24:56;7.93;;;7.13;;
61741;SDS011;47650;49.848;9.620;2022-09-14T13:29:59;7.93;;;7.28;;
61741;SDS011;47650;49.848;9.620;2022-09-14T13:32:25;9.18;;;7.95;;
61741;SDS011;47650;49.848;9.620;2022-09-14T13:34:51;8.13;;;7.30;;
61741;SDS011;47650;49.848;9.620;2022-09-14T13:37:18;11.75;;;7.70;;
61741;SDS011;47650;49.848;9.620;2022-09-14T13:39:50;16.20;;;14.70;;
61741;SDS011;47650;49.848;9.620;2022-09-14T13:42:17;10.00;;;8.10;;
61741;SDS011;47650;49.848;9.620;2022-09-14T13:44:43;8.82;;;7.35;;
61741;SDS011;47650;49.848;9.620;2022-09-14T13:47:12;9.45;;;7.32;;
61741;SDS011;47650;49.848;9.620;2022-09-14T13:49:39;9.65;;;8.60;;
61741;SDS011;47650;49.848;9.620;2022-09-14T13:52:15;9.55;;;8.63;;
61741;SDS011;47650;49.848;9.620;2022-09-14T13:55:06;12.57;;;9.02;;
61741;SDS011;47650;49.848;9.620;2022-09-14T13:58:02;20.55;;;18.52;;
61741;SDS011;47650;49.848;9.620;2022-09-14T14:00:53;17.17;;;15.68;;
61741;SDS011;47650;49.848;9.620;2022-09-14T14:03:45;15.05;;;12.80;;
61741;SDS011;47650;49.848;9.620;2022-09-14T14:06:28;12.93;;;11.73;;
61741;SDS011;47650;49.848;9.620;2022-09-14T14:09:06;13.25;;;11.95;;
61741;SDS011;47650;49.848;9.620;2022-09-14T14:11:36;14.52;;;12.15;;
61741;SDS011;47650;49.848;9.620;2022-09-14T14:19:27;24.90;;;22.27;;
61741;SDS011;47650;49.848;9.620;2022-09-14T14:27:17;30.60;;;24.42;;
61741;SDS011;47650;49.848;9.620;2022-09-14T14:29:51;25.13;;;22.35;;
61741;SDS011;47650;49.848;9.620;2022-09-14T14:32:17;81.18;;;34.42;;
61741;SDS011;47650;49.848;9.620;2022-09-14T14:34:43;279.63;;;66.43;;
61741;SDS011;47650;49.848;9.620;2022-09-14T14:37:08;184.75;;;52.50;;
61741;SDS011;47650;49.848;9.620;2022-09-14T14:39:34;158.45;;;54.97;;
61741;SDS011;47650;49.848;9.620;2022-09-14T14:42:02;213.45;;;85.40;;
61741;SDS011;47650;49.848;9.620;2022-09-14T14:44:29;160.63;;;98.60;;
61741;SDS011;47650;49.848;9.620;2022-09-14T14:46:56;135.13;;;67.50;;
61741;SDS011;47650;49.848;9.620;2022-09-14T14:49:22;80.35;;;50.03;;
61741;SDS011;47650;49.848;9.620;2022-09-14T14:51:52;153.57;;;74.93;;
61741;SDS011;47650;49.848;9.620;2022-09-14T14:54:19;121.65;;;65.93;;
61741;SDS011;47650;49.848;9.620;2022-09-14T14:56:46;117.47;;;63.78;;
61741;SDS011;47650;49.848;9.620;2022-09-14T15:01:41;95.82;;;56.35;;
61741;SDS011;47650;49.848;9.620;2022-09-14T15:04:07;66.35;;;45.92;;
61741;SDS011;47650;49.848;9.620;2022-09-14T15:06:33;84.43;;;55.05;;
61741;SDS011;47650;49.848;9.620;2022-09-14T15:08:58;88.57;;;56.55;;
61741;SDS011;47650;49.848;9.620;2022-09-14T15:11:23;135.70;;;42.75;;
61741;SDS011;47650;49.848;9.620;2022-09-14T15:13:49;199.25;;;72.20;;
61741;SDS011;47650;49.848;9.620;2022-09-14T15:16:17;88.20;;;51.67;;
61741;SDS011;47650;49.848;9.620;2022-09-14T15:18:43;191.02;;;65.28;;
61741;SDS011;47650;49.848;9.620;2022-09-14T15:21:08;143.60;;;71.10;;
61741;SDS011;47650;49.848;9.620;2022-09-14T15:23:45;96.47;;;56.10;;
61741;SDS011;47650;49.848;9.620;2022-09-14T15:26:17;77.88;;;50.25;;
61741;SDS011;47650;49.848;9.620;2022-09-14T15:28:49;87.50;;;55.25;;
61741;SDS011;47650;49.848;9.620;2022-09-14T15:34:20;159.43;;;71.85;;
61741;SDS011;47650;49.848;9.620;2022-09-14T15:36:48;118.47;;;63.65;;
61741;SDS011;47650;49.848;9.620;2022-09-14T15:39:16;61.60;;;41.88;;
61741;SDS011;47650;49.848;9.620;2022-09-14T15:44:19;45.10;;;29.77;;
61741;SDS011;47650;49.848;9.620;2022-09-14T15:46:46;42.38;;;29.67;;
61741;SDS011;47650;49.848;9.620;2022-09-14T15:49:15;33.90;;;25.90;;
61741;SDS011;47650;49.848;9.620;2022-09-14T15:51:43;30.58;;;24.50;;
61741;SDS011;47650;49.848;9.620;2022-09-14T15:54:11;21.52;;;19.10;;
61741;SDS011;47650;49.848;9.620;2022-09-14T15:57:11;25.52;;;21.52;;
61741;SDS011;47650;49.848;9.620;2022-09-14T15:59:31;29.70;;;24.20;;
61741;SDS011;47650;49.848;9.620;2022-09-14T16:01:59;25.83;;;21.92;;
61741;SDS011;47650;49.848;9.620;2022-09-14T16:04:25;22.33;;;18.50;;
61741;SDS011;47650;49.848;9.620;2022-09-14T16:06:51;24.48;;;19.08;;
61741;SDS011;47650;49.848;9.620;2022-09-14T16:09:17;18.48;;;15.25;;
61741;SDS011;47650;49.848;9.620;2022-09-14T16:11:46;11.57;;;9.10;;
61741;SDS011;47650;49.848;9.620;2022-09-14T16:14:13;12.27;;;10.30;;
61741;SDS011;47650;49.848;9.620;2022-09-14T16:16:39;12.82;;;9.38;;
61741;SDS011;47650;49.848;9.620;2022-09-14T16:19:06;9.65;;;8.68;;
61741;SDS011;47650;49.848;9.620;2022-09-14T16:21:39;12.43;;;11.13;;
61741;SDS011;47650;49.848;9.620;2022-09-14T16:24:07;10.40;;;8.63;;
61741;SDS011;47650;49.848;9.620;2022-09-14T16:26:36;10.65;;;8.43;;
61741;SDS011;47650;49.848;9.620;2022-09-14T16:29:03;14.32;;;8.23;;
61741;SDS011;47650;49.848;9.620;2022-09-14T16:31:33;8.25;;;6.65;;
61741;SDS011;47650;49.848;9.620;2022-09-14T16:34:00;11.38;;;10.23;;
61741;SDS011;47650;49.848;9.620;2022-09-14T16:36:29;11.25;;;8.23;;
61741;SDS011;47650;49.848;9.620;2022-09-14T16:38:57;9.80;;;8.80;;
61741;SDS011;47650;49.848;9.620;2022-09-14T16:41:25;8.18;;;7.38;;
61741;SDS011;47650;49.848;9.620;2022-09-14T16:43:54;8.90;;;6.72;;
61741;SDS011;47650;49.848;9.620;2022-09-14T16:46:27;10.13;;;7.60;;
61741;SDS011;47650;49.848;9.620;2022-09-14T16:48:55;6.20;;;5.22;;
61741;SDS011;47650;49.848;9.620;2022-09-14T16:51:23;8.98;;;5.28;;
61741;SDS011;47650;49.848;9.620;2022-09-14T16:53:50;6.35;;;4.75;;
61741;SDS011;47650;49.848;9.620;2022-09-14T16:56:18;6.63;;;5.07;;
61741;SDS011;47650;49.848;9.620;2022-09-14T16:58:46;7.63;;;6.35;;
61741;SDS011;47650;49.848;9.620;2022-09-14T17:01:13;6.40;;;5.78;;
61741;SDS011;47650;49.848;9.620;2022-09-14T17:03:44;6.55;;;4.50;;
61741;SDS011;47650;49.848;9.620;2022-09-14T17:06:12;5.50;;;4.55;;
61741;SDS011;47650;49.848;9.620;2022-09-14T17:08:48;8.82;;;4.50;;
61741;SDS011;47650;49.848;9.620;2022-09-14T17:11:17;5.63;;;4.72;;
61741;SDS011;47650;49.848;9.620;2022-09-14T17:13:44;8.38;;;4.57;;
61741;SDS011;47650;49.848;9.620;2022-09-14T17:16:15;7.07;;;4.35;;
61741;SDS011;47650;49.848;9.620;2022-09-14T17:18:44;9.17;;;4.70;;
61741;SDS011;47650;49.848;9.620;2022-09-14T17:21:16;4.78;;;4.30;;
61741;SDS011;47650;49.848;9.620;2022-09-14T17:23:44;5.90;;;5.28;;
61741;SDS011;47650;49.848;9.620;2022-09-14T17:26:10;5.50;;;4.40;;
61741;SDS011;47650;49.848;9.620;2022-09-14T17:28:38;6.72;;;4.20;;
61741;SDS011;47650;49.848;9.620;2022-09-14T17:31:04;5.40;;;4.32;;
61741;SDS011;47650;49.848;9.620;2022-09-14T17:33:32;6.97;;;4.43;;
61741;SDS011;47650;49.848;9.620;2022-09-14T17:35:59;5.90;;;4.25;;
61741;SDS011;47650;49.848;9.620;2022-09-14T17:38:27;6.97;;;4.63;;
61741;SDS011;47650;49.848;9.620;2022-09-14T17:41:05;5.97;;;4.75;;
61741;SDS011;47650;49.848;9.620;2022-09-14T17:43:33;8.20;;;4.90;;
61741;SDS011;47650;49.848;9.620;2022-09-14T17:45:59;7.65;;;4.32;;
61741;SDS011;47650;49.848;9.620;2022-09-14T17:48:26;8.50;;;5.20;;
61741;SDS011;47650;49.848;9.620;2022-09-14T17:50:52;6.63;;;5.70;;
61741;SDS011;47650;49.848;9.620;2022-09-14T17:53:18;8.18;;;5.47;;
61741;SDS011;47650;49.848;9.620;2022-09-14T17:55:44;6.57;;;4.28;;